createdAt,value
2023-03-17T00:01:55.142Z,92.40
2023-03-17T00:04:24.344Z,92.60
2023-03-17T00:06:51.817Z,92.80
2023-03-17T00:09:20.015Z,92.70
2023-03-17T00:11:47.540Z,92.40
2023-03-17T00:14:14.713Z,92.60
2023-03-17T00:16:44.137Z,92.20
2023-03-17T00:19:26.537Z,92.40
2023-03-17T00:24:21.878Z,92.20
2023-03-17T00:29:16.356Z,91.80
2023-03-17T00:31:45.500Z,91.40
2023-03-17T00:34:16.935Z,91.80
2023-03-17T00:36:47.179Z,92.10
2023-03-17T00:46:38.331Z,91.50
2023-03-17T00:51:44.774Z,92.10
2023-03-17T00:54:12.643Z,91.90
2023-03-17T00:56:40.622Z,92.00
2023-03-17T00:59:28.972Z,92.40
2023-03-17T01:01:56.334Z,92.60
2023-03-17T01:04:24.001Z,92.90
2023-03-17T01:09:24.176Z,92.40
2023-03-17T01:11:51.080Z,93.00
2023-03-17T01:14:18.141Z,92.50
2023-03-17T01:16:45.518Z,92.60
2023-03-17T01:19:13.724Z,92.30
2023-03-17T01:21:41.585Z,92.70
2023-03-17T01:24:09.637Z,92.70
2023-03-17T01:29:06.350Z,92.40
2023-03-17T01:31:33.795Z,92.70
2023-03-17T01:34:01.168Z,92.70
2023-03-17T01:36:28.116Z,92.80
2023-03-17T01:41:22.802Z,92.60
2023-03-17T01:43:49.962Z,92.90
2023-03-17T01:46:28.095Z,92.80
2023-03-17T01:49:09.997Z,92.60
2023-03-17T01:51:49.876Z,92.50
2023-03-17T01:54:26.328Z,92.40
2023-03-17T01:56:56.283Z,92.30
2023-03-17T01:59:28.774Z,92.50
2023-03-17T02:02:02.281Z,92.30
2023-03-17T02:04:30.433Z,92.30
2023-03-17T02:06:58.934Z,92.20
2023-03-17T02:09:27.663Z,91.80
2023-03-17T02:11:56.142Z,92.00
2023-03-17T02:14:23.781Z,92.20
2023-03-17T02:16:50.939Z,92.30
2023-03-17T02:19:18.081Z,92.40
2023-03-17T02:21:50.025Z,92.50
2023-03-17T02:24:32.160Z,92.40
2023-03-17T02:27:13.554Z,92.50
2023-03-17T02:29:41.598Z,92.50
2023-03-17T02:32:10.032Z,92.50
2023-03-17T02:34:37.386Z,92.40
2023-03-17T02:37:05.783Z,92.30
2023-03-17T02:39:32.814Z,92.50
2023-03-17T02:44:27.204Z,92.40
2023-03-17T02:46:54.205Z,92.60
2023-03-17T02:49:22.045Z,92.70
2023-03-17T02:51:48.982Z,93.10
2023-03-17T02:54:15.969Z,92.90
2023-03-17T02:56:42.917Z,92.80
2023-03-17T02:59:10.011Z,92.70
2023-03-17T03:01:38.903Z,92.80
2023-03-17T03:04:07.195Z,92.80
2023-03-17T03:13:56.349Z,92.50
2023-03-17T03:16:23.402Z,92.80
2023-03-17T03:23:46.005Z,92.60
2023-03-17T03:28:40.258Z,92.40
2023-03-17T03:33:34.977Z,92.60
2023-03-17T03:36:09.274Z,93.20
2023-03-17T03:38:36.443Z,93.00
2023-03-17T03:41:03.442Z,92.80
2023-03-17T03:45:57.981Z,92.60
2023-03-17T03:48:25.121Z,92.80
2023-03-17T03:50:59.559Z,92.80
2023-03-17T03:53:26.986Z,92.70
2023-03-17T03:55:54.928Z,92.70
2023-03-17T03:58:22.249Z,92.90
2023-03-17T04:00:49.445Z,93.00
2023-03-17T04:03:16.575Z,93.10
2023-03-17T04:05:43.526Z,93.40
2023-03-17T04:08:11.423Z,93.30
2023-03-17T04:13:06.592Z,93.20
2023-03-17T04:15:33.789Z,93.10
2023-03-17T04:22:56.225Z,92.80
2023-03-17T04:25:23.383Z,92.70
2023-03-17T04:30:18.400Z,93.10
2023-03-17T04:35:17.228Z,93.00
2023-03-17T04:40:13.341Z,92.90
2023-03-17T04:42:40.697Z,93.00
2023-03-17T04:45:09.607Z,92.70
2023-03-17T04:47:36.701Z,92.80
2023-03-17T04:50:04.805Z,92.90
2023-03-17T04:52:32.053Z,92.50
2023-03-17T04:57:26.462Z,92.10
2023-03-17T05:02:20.838Z,92.00
2023-03-17T05:04:48.019Z,92.20
2023-03-17T05:07:15.528Z,92.20
2023-03-17T05:09:43.600Z,92.00
2023-03-17T05:12:10.961Z,92.50
2023-03-17T05:14:39.075Z,92.40
2023-03-17T05:19:33.415Z,91.70
2023-03-17T05:24:28.131Z,91.50
2023-03-17T05:26:58.179Z,91.70
2023-03-17T05:29:25.120Z,91.70
2023-03-17T05:36:46.692Z,92.30
2023-03-17T05:39:14.666Z,93.00
2023-03-17T05:41:41.722Z,93.50
2023-03-17T05:46:36.547Z,93.80
2023-03-17T05:49:03.842Z,93.30
2023-03-17T05:51:36.376Z,92.60
2023-03-17T05:54:04.362Z,93.10
2023-03-17T05:59:01.804Z,93.50
2023-03-17T06:01:29.375Z,94.10
2023-03-17T06:03:56.525Z,94.20
2023-03-17T06:06:24.679Z,93.90
2023-03-17T06:08:54.770Z,94.20
2023-03-17T06:11:21.888Z,94.50
2023-03-17T06:16:16.670Z,93.70
2023-03-17T06:18:44.620Z,93.70
2023-03-17T06:21:12.559Z,93.00
2023-03-17T06:23:39.499Z,93.10
2023-03-17T06:28:36.424Z,93.80
2023-03-17T06:31:05.324Z,94.70
2023-03-17T06:33:34.566Z,94.90
2023-03-17T06:36:01.893Z,94.80
2023-03-17T06:38:28.795Z,95.40
2023-03-17T06:40:55.807Z,95.50
2023-03-17T06:43:24.747Z,95.30
2023-03-17T06:45:52.571Z,95.30
2023-03-17T06:48:19.836Z,94.60
2023-03-17T06:50:50.310Z,94.20
2023-03-17T06:53:17.454Z,94.30
2023-03-17T06:55:45.085Z,94.00
2023-03-17T06:58:13.200Z,93.80
2023-03-17T07:03:07.714Z,93.70
2023-03-17T07:05:34.660Z,93.80
2023-03-17T07:10:29.000Z,93.10
2023-03-17T07:15:24.059Z,92.90
2023-03-17T07:17:51.322Z,93.40
2023-03-17T07:20:18.354Z,93.50
2023-03-17T07:22:45.193Z,93.60
2023-03-17T07:25:12.756Z,93.70
2023-03-17T07:27:39.632Z,93.80
2023-03-17T07:30:07.605Z,93.60
2023-03-17T07:35:02.997Z,93.00
2023-03-17T07:37:30.232Z,94.80
2023-03-17T07:39:57.400Z,94.80
2023-03-17T07:42:24.356Z,94.00
2023-03-17T07:44:51.501Z,95.00
2023-03-17T07:49:46.090Z,95.50
2023-03-17T07:52:14.158Z,95.10
2023-03-17T07:54:43.172Z,94.80
2023-03-17T07:57:11.072Z,95.00
2023-03-17T07:59:40.002Z,94.60
2023-03-17T08:02:07.350Z,94.20
2023-03-17T08:11:57.679Z,92.30
2023-03-17T08:14:24.859Z,92.30
2023-03-17T08:16:54.218Z,92.20
2023-03-17T08:19:22.594Z,92.10
2023-03-17T08:21:49.623Z,92.20
2023-03-17T08:24:16.898Z,92.60
2023-03-17T08:29:11.094Z,93.40
2023-03-17T08:31:38.157Z,93.60
2023-03-17T08:34:05.074Z,93.20
2023-03-17T08:41:28.325Z,93.80
2023-03-17T08:43:56.224Z,94.10
2023-03-17T08:46:29.230Z,93.90
2023-03-17T08:48:57.433Z,94.10
2023-03-17T08:51:28.466Z,93.80
2023-03-17T08:56:23.124Z,93.20
2023-03-17T08:58:50.819Z,93.80
2023-03-17T09:01:19.116Z,93.80
2023-03-17T09:03:46.781Z,94.00
2023-03-17T09:06:14.310Z,93.10
2023-03-17T09:08:47.503Z,92.70
2023-03-17T09:11:17.214Z,92.60
2023-03-17T09:13:46.456Z,92.50
2023-03-17T09:16:14.913Z,92.20
2023-03-17T09:18:42.097Z,92.20
2023-03-17T09:21:10.708Z,92.50
2023-03-17T09:23:37.687Z,92.20
2023-03-17T09:26:04.698Z,91.60
2023-03-17T09:28:31.906Z,91.90
2023-03-17T09:31:03.669Z,92.10
2023-03-17T09:33:30.953Z,91.00
2023-03-17T09:35:57.949Z,90.80
2023-03-17T09:38:26.392Z,91.20
2023-03-17T09:41:14.025Z,90.90
2023-03-17T09:44:02.838Z,90.50
2023-03-17T09:46:36.486Z,90.20
2023-03-17T09:49:08.992Z,90.00
2023-03-17T09:51:36.031Z,89.40
2023-03-17T09:54:15.430Z,88.70
2023-03-17T09:56:46.855Z,88.10
2023-03-17T09:59:35.548Z,87.90
2023-03-17T10:02:03.053Z,88.00
2023-03-17T10:04:30.083Z,88.80
2023-03-17T10:07:03.697Z,86.60
2023-03-17T10:09:30.580Z,86.10
2023-03-17T10:12:22.382Z,84.50
2023-03-17T10:14:55.201Z,84.90
2023-03-17T10:17:28.475Z,90.80
2023-03-17T10:20:00.744Z,90.70
2023-03-17T10:22:35.181Z,88.90
2023-03-17T10:25:07.526Z,91.20
2023-03-17T10:27:37.415Z,90.50
2023-03-17T10:30:11.839Z,91.90
2023-03-17T10:32:41.052Z,91.40
2023-03-17T10:35:08.189Z,91.40
2023-03-17T10:37:36.725Z,94.60
2023-03-17T10:40:10.191Z,96.00
2023-03-17T10:42:47.726Z,92.90
2023-03-17T10:45:33.442Z,96.40
2023-03-17T10:48:02.614Z,93.70
2023-03-17T10:50:32.534Z,93.50
2023-03-17T10:53:06.069Z,93.90
2023-03-17T10:55:49.839Z,90.90
2023-03-17T10:58:20.424Z,93.00
2023-03-17T11:01:02.688Z,95.70
2023-03-17T11:03:38.859Z,91.30
2023-03-17T11:06:13.347Z,90.90
2023-03-17T11:08:49.369Z,92.50
2023-03-17T11:11:29.829Z,93.60
2023-03-17T11:14:07.108Z,94.40
2023-03-17T11:16:45.955Z,92.10
2023-03-17T11:19:16.787Z,90.10
2023-03-17T11:22:00.139Z,94.50
2023-03-17T11:24:33.528Z,91.40
2023-03-17T11:27:11.128Z,95.80
2023-03-17T11:29:50.368Z,91.70
2023-03-17T11:32:37.016Z,91.00
2023-03-17T11:35:32.998Z,91.40
2023-03-17T11:38:19.124Z,91.40
2023-03-17T11:40:55.517Z,91.40
2023-03-17T11:43:45.465Z,90.80
2023-03-17T11:46:43.069Z,90.60
2023-03-17T11:49:29.040Z,94.90
2023-03-17T11:52:07.889Z,94.30
2023-03-17T11:55:16.291Z,92.50
2023-03-17T11:58:32.025Z,92.30
2023-03-17T12:01:01.695Z,91.40
2023-03-17T12:03:38.832Z,90.30
2023-03-17T12:06:24.771Z,90.60
2023-03-17T12:09:00.352Z,90.90
2023-03-17T12:11:35.181Z,90.50
2023-03-17T12:14:12.316Z,91.40
2023-03-17T12:16:41.395Z,90.00
2023-03-17T12:19:21.091Z,90.70
2023-03-17T12:22:18.940Z,87.20
2023-03-17T12:25:06.209Z,88.10
2023-03-17T12:27:41.337Z,92.60
2023-03-17T12:30:08.551Z,89.10
2023-03-17T12:32:46.969Z,90.40
2023-03-17T12:35:29.216Z,89.00
2023-03-17T12:38:09.072Z,90.50
2023-03-17T12:40:48.110Z,90.10
2023-03-17T12:43:55.909Z,89.50
2023-03-17T12:46:41.597Z,89.10
2023-03-17T12:49:27.055Z,90.20
2023-03-17T12:52:18.819Z,89.80
2023-03-17T12:54:50.032Z,90.00
2023-03-17T12:57:23.128Z,90.10
2023-03-17T12:59:57.869Z,90.80
2023-03-17T13:02:37.407Z,90.00
2023-03-17T13:05:30.467Z,90.90
2023-03-17T13:08:01.682Z,87.60
2023-03-17T13:10:44.285Z,87.30
2023-03-17T13:13:36.363Z,86.90
2023-03-17T13:16:23.694Z,87.00
2023-03-17T13:19:05.869Z,87.30
2023-03-17T13:21:35.393Z,87.20
2023-03-17T13:24:20.519Z,87.90
2023-03-17T13:27:02.062Z,90.40
2023-03-17T13:29:32.336Z,90.10
2023-03-17T13:32:23.562Z,90.30
2023-03-17T13:35:15.801Z,91.00
2023-03-17T13:38:09.775Z,91.80
2023-03-17T13:40:49.140Z,91.60
2023-03-17T13:43:45.498Z,91.30
2023-03-17T13:46:25.575Z,91.50
2023-03-17T13:48:56.490Z,91.50
2023-03-17T13:51:32.204Z,91.00
2023-03-17T13:54:28.172Z,90.60
2023-03-17T13:56:59.384Z,90.50
2023-03-17T13:59:35.691Z,90.60
2023-03-17T14:02:18.493Z,90.50
2023-03-17T14:04:54.510Z,90.50
2023-03-17T14:07:31.213Z,90.60
2023-03-17T14:10:05.009Z,90.90
2023-03-17T14:15:08.120Z,91.40
2023-03-17T14:17:43.810Z,91.70
2023-03-17T14:20:13.925Z,91.30
2023-03-17T14:22:45.139Z,91.40
2023-03-17T14:25:21.845Z,90.50
2023-03-17T14:27:53.212Z,90.10
2023-03-17T14:30:27.025Z,90.10
2023-03-17T14:33:27.114Z,90.00
2023-03-17T14:36:00.784Z,90.30
2023-03-17T14:38:34.004Z,91.00
2023-03-17T14:41:04.651Z,91.40
2023-03-17T14:43:33.519Z,90.90
2023-03-17T14:46:13.233Z,91.40
2023-03-17T14:48:42.868Z,91.60
2023-03-17T14:51:30.670Z,91.50
2023-03-17T14:54:00.972Z,91.40
2023-03-17T14:56:38.034Z,91.30
2023-03-17T14:59:37.386Z,91.10
2023-03-17T15:02:30.916Z,91.60
2023-03-17T15:05:22.501Z,92.20
2023-03-17T15:07:49.923Z,92.40
2023-03-17T15:10:31.250Z,92.90
2023-03-17T15:13:04.435Z,93.10
2023-03-17T15:15:34.752Z,92.80
2023-03-17T15:18:07.228Z,92.90
2023-03-17T15:20:35.473Z,92.90
2023-03-17T15:23:14.860Z,92.90
2023-03-17T15:25:56.374Z,91.30
2023-03-17T15:28:26.897Z,91.60
2023-03-17T15:30:56.672Z,91.80
2023-03-17T15:33:35.394Z,92.30
2023-03-17T15:36:02.920Z,92.60
2023-03-17T15:38:30.900Z,92.60
2023-03-17T15:40:58.125Z,92.30
2023-03-17T15:43:25.036Z,92.30
2023-03-17T15:45:58.248Z,92.50
2023-03-17T15:48:27.665Z,92.50
2023-03-17T15:50:56.888Z,92.30
2023-03-17T15:53:24.452Z,92.30
2023-03-17T15:55:51.516Z,92.10
2023-03-17T15:58:18.851Z,92.30
2023-03-17T16:00:51.737Z,92.50
2023-03-17T16:03:18.755Z,92.90
2023-03-17T16:05:45.891Z,92.80
2023-03-17T16:08:14.758Z,92.70
2023-03-17T16:10:42.216Z,92.70
2023-03-17T16:13:09.675Z,93.10
2023-03-17T16:15:39.124Z,92.40
2023-03-17T16:18:12.981Z,93.90
2023-03-17T16:20:50.304Z,92.80
2023-03-17T16:23:20.008Z,93.50
2023-03-17T16:25:47.024Z,93.20
2023-03-17T16:28:15.619Z,92.40
2023-03-17T16:30:42.816Z,92.20
2023-03-17T16:33:16.567Z,92.40
2023-03-17T16:35:43.849Z,91.80
2023-03-17T16:38:17.843Z,92.10
2023-03-17T16:40:50.341Z,91.90
2023-03-17T16:43:25.620Z,92.10
2023-03-17T16:45:55.307Z,92.20
2023-03-17T16:48:22.389Z,92.20
2023-03-17T16:50:50.366Z,92.30
2023-03-17T16:53:17.640Z,92.50
2023-03-17T16:55:45.422Z,92.50
2023-03-17T16:58:21.285Z,92.70
2023-03-17T17:00:49.363Z,92.60
2023-03-17T17:03:16.383Z,92.20
2023-03-17T17:05:45.872Z,91.80
2023-03-17T17:08:12.919Z,92.00
2023-03-17T17:10:40.850Z,92.40
2023-03-17T17:13:09.779Z,92.80
2023-03-17T17:15:37.719Z,93.90
2023-03-17T17:18:08.095Z,93.60
2023-03-17T17:20:37.684Z,94.10
2023-03-17T17:23:06.634Z,94.30
2023-03-17T17:25:36.726Z,94.30
2023-03-17T17:28:04.377Z,94.40
2023-03-17T17:30:32.346Z,93.90
2023-03-17T17:33:00.610Z,93.70
2023-03-17T17:35:31.994Z,93.10
2023-03-17T17:38:01.133Z,93.30
2023-03-17T17:42:57.728Z,92.10
2023-03-17T17:45:25.032Z,92.20
2023-03-17T17:47:51.909Z,91.80
2023-03-17T17:50:26.224Z,91.60
2023-03-17T17:52:53.205Z,91.30
2023-03-17T17:55:20.110Z,91.20
2023-03-17T17:57:46.992Z,90.90
2023-03-17T18:00:17.219Z,91.00
2023-03-17T18:02:44.838Z,91.00
2023-03-17T18:05:12.844Z,91.10
2023-03-17T18:10:08.643Z,93.20
2023-03-17T18:12:35.713Z,93.90
2023-03-17T18:15:02.915Z,93.80
2023-03-17T18:17:32.392Z,93.20
2023-03-17T18:19:59.594Z,92.80
2023-03-17T18:22:27.136Z,92.70
2023-03-17T18:24:54.241Z,92.10
2023-03-17T18:27:21.309Z,91.60
2023-03-17T18:29:49.093Z,91.30
2023-03-17T18:32:16.701Z,91.10
2023-03-17T18:34:46.296Z,91.10
2023-03-17T18:37:17.652Z,90.80
2023-03-17T18:39:52.982Z,90.70
2023-03-17T18:42:26.192Z,90.40
2023-03-17T18:44:53.117Z,90.50
2023-03-17T18:47:20.063Z,90.40
2023-03-17T18:49:47.268Z,90.30
2023-03-17T18:52:14.632Z,90.60
2023-03-17T18:54:42.005Z,91.00
2023-03-17T18:57:10.265Z,91.10
2023-03-17T18:59:37.178Z,91.00
2023-03-17T19:02:06.917Z,91.20
2023-03-17T19:04:34.460Z,92.10
2023-03-17T19:07:01.472Z,92.70
2023-03-17T19:09:28.578Z,92.20
2023-03-17T19:11:56.008Z,90.80
2023-03-17T19:14:23.461Z,91.00
2023-03-17T19:16:50.345Z,90.80
2023-03-17T19:19:17.685Z,90.70
2023-03-17T19:21:44.721Z,90.50
2023-03-17T19:24:12.383Z,90.60
2023-03-17T19:26:40.011Z,90.50
2023-03-17T19:29:09.794Z,90.90
2023-03-17T19:31:41.637Z,90.90
2023-03-17T19:34:14.162Z,90.70
2023-03-17T19:36:43.237Z,90.40
2023-03-17T19:39:13.716Z,90.30
2023-03-17T19:41:40.909Z,90.20
2023-03-17T19:44:13.014Z,90.30
2023-03-17T19:46:40.636Z,90.20
2023-03-17T19:49:08.876Z,90.30
2023-03-17T19:51:37.336Z,90.50
2023-03-17T19:54:05.453Z,91.00
2023-03-17T19:56:33.829Z,92.30
2023-03-17T19:59:01.361Z,93.40
2023-03-17T20:01:30.225Z,94.40
2023-03-17T20:03:59.154Z,95.40
2023-03-17T20:06:26.262Z,96.10
2023-03-17T20:08:53.273Z,96.70
2023-03-17T20:11:20.102Z,97.30
2023-03-17T20:13:47.541Z,97.40
2023-03-17T20:16:14.521Z,97.00
2023-03-17T20:18:41.554Z,97.20
2023-03-17T20:21:12.748Z,97.90
2023-03-17T20:23:39.772Z,97.80
2023-03-17T20:26:07.545Z,98.20
2023-03-17T20:28:38.754Z,98.60
2023-03-17T20:31:05.743Z,99.40
2023-03-17T20:33:33.688Z,99.20
2023-03-17T20:36:02.000Z,99.70
2023-03-17T20:38:30.990Z,99.30
2023-03-17T20:41:18.313Z,98.00
2023-03-17T20:43:46.074Z,96.30
2023-03-17T20:46:21.805Z,94.00
2023-03-17T20:48:49.365Z,94.20
2023-03-17T20:51:17.274Z,94.10
2023-03-17T20:53:46.360Z,93.70
2023-03-17T20:56:16.270Z,93.40
2023-03-17T20:58:45.489Z,93.50
2023-03-17T21:01:13.563Z,92.80
2023-03-17T21:03:41.341Z,92.40
2023-03-17T21:06:11.138Z,92.30
2023-03-17T21:08:38.761Z,92.20
2023-03-17T21:11:09.735Z,92.10
2023-03-17T21:13:37.047Z,92.20
2023-03-17T21:16:04.243Z,92.10
2023-03-17T21:18:31.799Z,92.10
2023-03-17T21:20:58.806Z,91.60
2023-03-17T21:23:26.624Z,91.70
2023-03-17T21:25:56.021Z,91.00
2023-03-17T21:28:23.505Z,91.20
2023-03-17T21:33:18.756Z,90.80
2023-03-17T21:35:45.669Z,90.90
2023-03-17T21:38:12.794Z,91.00
2023-03-17T21:40:39.785Z,90.80
2023-03-17T21:43:07.041Z,90.80
2023-03-17T21:45:34.063Z,90.80
2023-03-17T21:48:01.667Z,91.00
2023-03-17T21:50:29.811Z,91.10
2023-03-17T21:52:57.472Z,91.10
2023-03-17T21:55:24.532Z,91.20
2023-03-17T21:57:51.481Z,91.20
2023-03-17T22:00:19.111Z,91.10
2023-03-17T22:02:46.775Z,91.10
2023-03-17T22:05:13.847Z,91.20
2023-03-17T22:07:41.087Z,91.20
2023-03-17T22:10:11.701Z,91.40
2023-03-17T22:12:39.140Z,91.40
2023-03-17T22:15:08.911Z,91.50
2023-03-17T22:17:36.371Z,91.70
2023-03-17T22:20:06.748Z,92.10
2023-03-17T22:22:34.488Z,92.20
2023-03-17T22:25:05.145Z,92.30
2023-03-17T22:27:32.574Z,92.60
2023-03-17T22:29:59.464Z,92.80
2023-03-17T22:32:26.403Z,92.90
2023-03-17T22:34:53.366Z,93.00
2023-03-17T22:37:20.248Z,93.00
2023-03-17T22:39:47.176Z,93.10
2023-03-17T22:42:14.166Z,93.20
2023-03-17T22:44:41.118Z,93.80
2023-03-17T22:47:08.242Z,94.60
2023-03-17T22:49:35.184Z,95.00
2023-03-17T22:52:02.192Z,95.80
2023-03-17T22:54:29.119Z,96.60
2023-03-17T22:56:56.007Z,97.20
2023-03-17T22:59:22.905Z,97.70
2023-03-17T23:01:49.852Z,98.10
2023-03-17T23:04:16.801Z,98.30
2023-03-17T23:06:43.660Z,98.60
2023-03-17T23:09:10.689Z,98.90
2023-03-17T23:11:38.039Z,99.00
2023-03-17T23:16:32.317Z,99.00
2023-03-17T23:18:59.266Z,99.60
2023-03-17T23:21:35.911Z,99.90
2023-03-17T23:24:03.929Z,98.90
2023-03-17T23:26:32.098Z,98.80
2023-03-17T23:31:27.500Z,98.10
2023-03-17T23:33:54.453Z,97.90
2023-03-17T23:36:21.898Z,97.30
2023-03-17T23:38:49.547Z,96.90
2023-03-17T23:41:16.984Z,96.40
2023-03-17T23:43:44.256Z,96.10
2023-03-17T23:46:13.939Z,96.00
2023-03-17T23:48:42.572Z,96.00
2023-03-17T23:51:11.107Z,96.70
2023-03-17T23:53:39.635Z,97.20
2023-03-17T23:56:08.025Z,97.20
2023-03-17T23:58:34.992Z,97.30
